Time;durP1;ratioP1;P1;durP2;ratioP2;P2;SDS_P1;SDS_P2;PMS_P1;PMS_P2;Temp;Humidity;BMP_temperature;BMP_pressure;BME280_temperature;BME280_humidity;BME280_pressure;Samples;Min_cycle;Max_cycle;Signal;HPM_P1;HPM_P2
2021/09/06 00:02:05;;;;;;;10.10;4.47;;;;;;;19.34;48.99;100473.09;4952888;29;20040;-93
2021/09/06 00:04:33;;;;;;;13.20;4.10;;;;;;;19.33;49.35;100471.44;4938575;29;20040;-91
2021/09/06 00:07:00;;;;;;;7.47;4.53;;;;;;;19.28;49.06;100473.63;4938538;29;20047;-92
2021/09/06 00:09:27;;;;;;;6.03;3.80;;;;;;;19.30;49.06;100473.47;4938229;29;20422;-92
2021/09/06 00:11:54;;;;;;;7.95;4.85;;;;;;;19.29;49.67;100483.22;4939346;29;20047;-94
2021/09/06 00:14:21;;;;;;;5.57;4.07;;;;;;;19.36;48.82;100492.31;4939169;29;20058;-94
2021/09/06 00:16:49;;;;;;;10.13;5.22;;;;;;;19.22;48.98;100489.94;4938774;29;20157;-92
2021/09/06 00:19:17;;;;;;;5.93;5.05;;;;;;;19.36;48.37;100486.19;4937429;29;20080;-87
2021/09/06 00:21:44;;;;;;;7.10;5.28;;;;;;;19.28;49.13;100480.69;4936261;29;20078;-87
2021/09/06 00:24:10;;;;;;;5.10;4.60;;;;;;;19.24;48.53;100480.13;4935823;29;20045;-87
2021/09/06 00:26:38;;;;;;;5.65;4.30;;;;;;;19.21;48.99;100469.78;4936202;29;20126;-87
2021/09/06 00:29:05;;;;;;;6.72;5.00;;;;;;;19.28;48.42;100478.03;4934557;29;20047;-87
2021/09/06 00:31:32;;;;;;;4.45;4.05;;;;;;;19.36;47.98;100468.50;4916846;29;20036;-87
2021/09/06 00:33:59;;;;;;;5.45;4.95;;;;;;;19.28;48.40;100470.09;4915856;29;20384;-88
2021/09/06 00:36:26;;;;;;;8.38;4.97;;;;;;;19.26;49.08;100477.34;4900781;29;20069;-87
2021/09/06 00:38:52;;;;;;;5.68;5.07;;;;;;;19.01;49.65;100479.34;4918783;29;20074;-89
2021/09/06 00:41:20;;;;;;;7.95;4.47;;;;;;;18.84;50.22;100478.06;4937329;29;20115;-93
2021/09/06 00:43:48;;;;;;;5.50;4.38;;;;;;;18.83;50.89;100478.19;4920758;29;20082;-91
2021/09/06 00:46:15;;;;;;;5.07;4.57;;;;;;;18.79;50.86;100476.75;4922434;29;20938;-86
2021/09/06 00:48:42;;;;;;;5.75;5.20;;;;;;;18.79;50.61;100471.47;4922425;29;20561;-86
2021/09/06 00:51:09;;;;;;;7.55;4.90;;;;;;;18.80;50.32;100474.03;4938929;29;20422;-87
2021/09/06 00:53:36;;;;;;;4.88;4.40;;;;;;;18.86;50.22;100477.13;4922267;29;20039;-87
2021/09/06 00:56:04;;;;;;;7.47;5.38;;;;;;;18.88;50.51;100475.19;4939017;29;20043;-85
2021/09/06 00:58:34;;;;;;;5.60;4.18;;;;;;;18.92;50.29;100471.34;4939431;29;20472;-85
2021/09/06 01:01:01;;;;;;;5.22;4.63;;;;;;;19.00;51.18;100475.03;4938579;29;20498;-86
2021/09/06 01:03:29;;;;;;;10.23;3.97;;;;;;;19.18;48.62;100477.97;4906320;29;20032;-86
2021/09/06 01:06:05;;;;;;;5.75;5.15;;;;;;;19.17;49.91;100471.00;4921475;29;20044;-91
2021/09/06 01:08:49;;;;;;;4.88;4.40;;;;;;;19.16;50.03;100479.91;4940148;29;20138;-90
2021/09/06 01:11:35;;;;;;;5.13;4.13;;;;;;;19.17;48.96;100483.38;4939992;29;20047;-90
2021/09/06 01:14:01;;;;;;;6.70;4.78;;;;;;;19.15;49.51;100477.38;4923570;29;20040;-91
2021/09/06 01:16:33;;;;;;;6.30;5.13;;;;;;;18.76;51.64;100506.91;4955004;29;20058;-89
2021/09/06 01:19:01;;;;;;;7.25;6.55;;;;;;;17.61;56.31;100507.00;4938833;29;20098;-88
2021/09/06 01:21:28;;;;;;;9.77;7.05;;;;;;;17.36;57.92;100515.06;4922270;29;20036;-87
2021/09/06 01:24:19;;;;;;;7.57;6.70;;;;;;;17.57;58.14;100529.28;4936927;29;20051;-89
2021/09/06 01:26:48;;;;;;;7.80;7.00;;;;;;;17.38;57.90;100524.53;4922239;29;20043;-89
2021/09/06 01:29:20;;;;;;;8.57;7.30;;;;;;;17.37;58.03;100522.88;4938892;29;20103;-89
2021/09/06 01:31:47;;;;;;;9.95;6.70;;;;;;;16.96;59.61;100531.16;4921317;29;20047;-89
2021/09/06 01:34:15;;;;;;;8.13;6.65;;;;;;;17.17;58.86;100516.44;4953205;29;20055;-89
2021/09/06 01:36:43;;;;;;;11.48;6.45;;;;;;;17.24;58.73;100522.06;4922201;29;20139;-89
2021/09/06 01:39:10;;;;;;;8.85;6.82;;;;;;;17.17;59.12;100515.59;4953726;29;20040;-90
2021/09/06 01:41:37;;;;;;;11.63;7.50;;;;;;;17.13;59.05;100527.28;4938469;29;20139;-89
2021/09/06 01:44:06;;;;;;;8.05;6.72;;;;;;;17.04;59.62;100531.41;4952843;29;20058;-87
2021/09/06 01:46:35;;;;;;;7.93;7.13;;;;;;;17.04;59.52;100531.41;4937950;29;20452;-90
2021/09/06 01:49:03;;;;;;;8.27;6.38;;;;;;;17.13;59.42;100546.56;4922362;29;20374;-90
2021/09/06 01:51:32;;;;;;;9.45;7.32;;;;;;;17.17;59.39;100541.94;4922675;29;20048;-88
2021/09/06 01:53:59;;;;;;;9.18;6.63;;;;;;;17.13;60.33;100556.25;4921844;29;20039;-89
2021/09/06 01:56:26;;;;;;;12.50;7.78;;;;;;;17.10;60.11;100549.44;4937769;29;20040;-88
2021/09/06 01:58:56;;;;;;;8.38;6.03;;;;;;;17.15;59.75;100551.72;4954633;29;20479;-89
2021/09/06 02:01:24;;;;;;;7.93;6.72;;;;;;;16.99;59.98;100557.25;4922411;29;20043;-91
2021/09/06 02:03:51;;;;;;;7.22;5.80;;;;;;;16.96;60.28;100560.97;4926254;29;20054;-91
2021/09/06 02:06:18;;;;;;;9.90;5.65;;;;;;;17.05;59.84;100548.09;4926344;29;20039;-91
2021/09/06 02:09:05;;;;;;;8.82;6.03;;;;;;;17.04;59.22;100560.38;4939553;29;20127;-89
2021/09/06 02:11:35;;;;;;;9.10;5.97;;;;;;;17.20;58.60;100557.50;4939720;29;20040;-90
2021/09/06 02:14:04;;;;;;;10.32;6.22;;;;;;;17.17;58.45;100561.22;4922289;29;20044;-91
2021/09/06 02:16:32;;;;;;;7.65;5.30;;;;;;;17.00;59.08;100562.44;4923921;29;20047;-90
2021/09/06 02:19:04;;;;;;;6.05;5.25;;;;;;;16.88;59.39;100565.06;4925072;29;20039;-89
2021/09/06 02:21:30;;;;;;;6.85;5.97;;;;;;;16.90;59.41;100566.66;4921605;29;20044;-89
2021/09/06 02:24:02;;;;;;;6.45;5.82;;;;;;;17.06;58.80;100557.66;4924104;29;20044;-88
2021/09/06 02:26:36;;;;;;;10.27;6.82;;;;;;;17.18;58.35;100562.88;4924236;29;20055;-88
2021/09/06 02:29:07;;;;;;;8.60;6.07;;;;;;;17.20;58.32;100558.34;4921256;29;20098;-88
2021/09/06 02:31:38;;;;;;;7.50;5.90;;;;;;;17.22;58.73;100550.34;4941638;29;20308;-90
2021/09/06 02:34:23;;;;;;;7.60;5.55;;;;;;;17.21;58.72;100548.66;4932234;29;20071;-91
2021/09/06 02:36:50;;;;;;;8.98;5.28;;;;;;;17.22;57.42;100551.19;4962247;29;20459;-90
2021/09/06 02:39:17;;;;;;;5.32;4.82;;;;;;;17.33;57.41;100546.91;4957885;29;20071;-92
2021/09/06 02:41:44;;;;;;;7.38;5.78;;;;;;;17.31;57.33;100543.53;4921618;29;20047;-89
2021/09/06 02:44:11;;;;;;;7.45;5.75;;;;;;;17.33;57.28;100544.28;4920113;29;20054;-91
2021/09/06 02:46:39;;;;;;;6.80;5.75;;;;;;;17.31;57.82;100531.22;4920300;29;20048;-91
2021/09/06 02:49:08;;;;;;;7.93;5.63;;;;;;;17.27;57.34;100538.50;4936245;29;20524;-90
2021/09/06 02:51:34;;;;;;;7.43;5.75;;;;;;;17.44;57.30;100533.78;4920817;29;20517;-90
2021/09/06 02:54:01;;;;;;;6.75;6.05;;;;;;;17.44;56.70;100536.44;4920680;29;20055;-93
2021/09/06 02:56:28;;;;;;;6.72;5.00;;;;;;;17.49;57.35;100531.66;4921026;29;20044;-91
2021/09/06 02:58:55;;;;;;;6.72;5.45;;;;;;;17.58;56.89;100538.88;4920805;29;20066;-92
2021/09/06 03:01:22;;;;;;;8.85;5.47;;;;;;;17.53;57.61;100538.38;4938623;29;20055;-91
2021/09/06 03:03:50;;;;;;;8.13;5.20;;;;;;;17.50;56.38;100541.25;4923981;29;20052;-93
2021/09/06 03:06:17;;;;;;;5.63;4.55;;;;;;;17.39;56.83;100547.31;4923045;29;20139;-90
2021/09/06 03:08:44;;;;;;;8.23;4.47;;;;;;;17.05;57.78;100546.28;4922097;29;20124;-89
2021/09/06 03:11:12;;;;;;;5.85;5.15;;;;;;;16.85;58.80;100549.50;4952446;29;20051;-90
2021/09/06 03:13:38;;;;;;;5.72;5.15;;;;;;;16.77;58.95;100542.16;4920320;29;20055;-89
2021/09/06 03:16:06;;;;;;;7.90;4.95;;;;;;;16.85;59.71;100547.72;4919260;29;20058;-88
2021/09/06 03:18:34;;;;;;;5.68;5.10;;;;;;;16.87;59.78;100543.16;4920117;29;20074;-88
2021/09/06 03:21:27;;;;;;;8.60;5.38;;;;;;;16.66;59.79;100545.50;4936030;29;20142;-89
2021/09/06 03:23:54;;;;;;;6.72;5.18;;;;;;;16.68;59.70;100530.47;4919786;29;20044;-89
2021/09/06 03:26:25;;;;;;;9.50;4.90;;;;;;;16.74;58.95;100532.69;4919348;29;20054;-88
2021/09/06 03:28:52;;;;;;;4.63;4.22;;;;;;;16.65;59.41;100535.94;4919009;29;20069;-88
2021/09/06 03:31:22;;;;;;;5.75;5.20;;;;;;;16.64;59.54;100538.69;4919208;29;20050;-88
2021/09/06 03:33:53;;;;;;;5.43;4.93;;;;;;;16.73;59.13;100541.53;4919449;29;20391;-88
2021/09/06 03:36:21;;;;;;;5.47;4.97;;;;;;;16.72;59.06;100537.22;4936856;29;20052;-86
2021/09/06 03:38:50;;;;;;;8.90;4.95;;;;;;;16.79;58.79;100542.06;4951148;28;20055;-86
2021/09/06 03:41:19;;;;;;;6.10;5.20;;;;;;;16.88;58.41;100544.00;4951808;28;20521;-88
2021/09/06 03:43:46;;;;;;;7.18;4.75;;;;;;;16.86;58.65;100538.88;4935855;29;20077;-85
2021/09/06 03:46:13;;;;;;;6.80;5.20;;;;;;;16.82;58.31;100544.47;4975609;28;20048;-87
2021/09/06 03:48:41;;;;;;;8.50;5.00;;;;;;;16.76;58.61;100540.47;4959483;28;20099;-87
2021/09/06 03:51:08;;;;;;;7.18;5.43;;;;;;;16.76;58.75;100541.31;4938019;29;20052;-85
2021/09/06 03:53:35;;;;;;;5.95;5.35;;;;;;;16.73;58.77;100538.06;4937156;29;20040;-88
2021/09/06 03:56:02;;;;;;;11.55;4.93;;;;;;;16.66;59.09;100542.88;4920345;29;20063;-88
2021/09/06 03:58:35;;;;;;;5.70;4.68;;;;;;;16.57;59.44;100538.28;4920180;29;20047;-88
2021/09/06 04:01:02;;;;;;;5.22;4.72;;;;;;;16.61;59.29;100536.25;4920754;29;20080;-86
2021/09/06 04:03:30;;;;;;;6.25;5.40;;;;;;;16.67;58.97;100538.44;4951948;29;20047;-90
2021/09/06 04:05:59;;;;;;;6.18;5.10;;;;;;;16.67;59.32;100536.69;4919297;29;20834;-87
2021/09/06 04:08:26;;;;;;;10.20;5.00;;;;;;;16.55;59.55;100544.59;4935871;29;20538;-88
2021/09/06 04:10:53;;;;;;;6.40;4.88;;;;;;;16.46;59.83;100541.66;4950973;29;20052;-87
2021/09/06 04:13:24;;;;;;;7.20;5.32;;;;;;;16.43;60.38;100548.91;4918855;29;20039;-87
2021/09/06 04:15:54;;;;;;;6.05;5.45;;;;;;;16.49;60.21;100543.22;4918997;29;20055;-87
2021/09/06 04:18:23;;;;;;;5.72;4.78;;;;;;;16.51;60.20;100543.94;4951336;28;20039;-88
2021/09/06 04:20:50;;;;;;;8.05;5.30;;;;;;;16.45;60.92;100542.59;4922806;29;20159;-85
2021/09/06 04:23:19;;;;;;;5.93;5.00;;;;;;;16.33;61.35;100545.25;4922703;29;20075;-87
2021/09/06 04:25:46;;;;;;;5.50;4.95;;;;;;;16.28;62.18;100542.09;4922636;29;20054;-87
2021/09/06 04:28:13;;;;;;;4.97;4.47;;;;;;;16.22;62.03;100551.25;4954233;29;20070;-87
2021/09/06 04:30:40;;;;;;;7.13;5.43;;;;;;;16.33;62.23;100547.88;4922587;29;20051;-83
2021/09/06 04:33:21;;;;;;;9.27;5.13;;;;;;;16.42;61.47;100550.72;4953577;29;20406;-83
2021/09/06 04:35:48;;;;;;;7.25;5.10;;;;;;;16.43;61.74;100562.06;4922028;29;20044;-82
2021/09/06 04:38:15;;;;;;;5.30;4.80;;;;;;;16.40;61.71;100557.84;4921651;29;20071;-81
2021/09/06 04:40:42;;;;;;;5.93;5.18;;;;;;;16.46;61.62;100559.25;4953823;29;20070;-81
2021/09/06 04:43:09;;;;;;;7.00;6.30;;;;;;;16.45;61.82;100561.00;4953194;29;20047;-82
2021/09/06 04:45:36;;;;;;;7.32;4.90;;;;;;;16.38;62.11;100569.44;4953518;29;20075;-81
2021/09/06 04:48:03;;;;;;;7.35;4.93;;;;;;;16.48;61.96;100566.06;4921345;29;20052;-81
2021/09/06 04:50:30;;;;;;;5.75;5.10;;;;;;;16.58;61.56;100571.53;4921807;29;20051;-81
2021/09/06 04:52:57;;;;;;;7.68;5.18;;;;;;;16.67;61.38;100576.16;4921527;29;20050;-80
2021/09/06 04:55:25;;;;;;;6.40;5.15;;;;;;;16.76;61.12;100580.78;4921580;29;20537;-81
2021/09/06 04:57:52;;;;;;;6.45;5.03;;;;;;;16.70;61.29;100589.09;4921451;29;20075;-81
2021/09/06 05:00:18;;;;;;;7.57;5.47;;;;;;;16.82;60.75;100581.31;4938358;29;20105;-81
2021/09/06 05:02:46;;;;;;;5.07;4.57;;;;;;;16.85;60.70;100589.84;4937328;29;20071;-82
2021/09/06 05:05:13;;;;;;;7.32;4.97;;;;;;;17.05;60.09;100591.06;4921479;29;20048;-80
2021/09/06 05:07:40;;;;;;;7.47;4.70;;;;;;;17.10;60.04;100586.31;4950128;29;20136;-82
2021/09/06 05:10:08;;;;;;;5.50;4.93;;;;;;;17.20;59.73;100599.66;4949765;29;20413;-81
2021/09/06 05:12:35;;;;;;;5.95;5.32;;;;;;;17.27;59.49;100595.63;4918425;29;20384;-82
2021/09/06 05:15:02;;;;;;;6.38;5.20;;;;;;;17.39;59.29;100609.72;4917722;29;20535;-78
2021/09/06 05:17:31;;;;;;;7.47;4.80;;;;;;;17.36;59.51;100607.28;4917757;29;20047;-81
2021/09/06 05:19:58;;;;;;;9.18;5.75;;;;;;;17.50;59.40;100599.22;4918182;29;20048;-81
2021/09/06 05:22:27;;;;;;;7.07;5.13;;;;;;;17.50;59.12;100605.34;4917435;29;20084;-80
2021/09/06 05:24:55;;;;;;;6.43;5.35;;;;;;;17.72;58.60;100604.63;4933678;29;20048;-80
2021/09/06 05:27:24;;;;;;;8.73;5.80;;;;;;;17.96;57.88;100611.69;4949384;29;20052;-84
2021/09/06 05:29:51;;;;;;;7.90;4.68;;;;;;;18.11;57.50;100613.16;4949962;28;20066;-80
2021/09/06 05:32:18;;;;;;;6.18;4.80;;;;;;;18.01;57.83;100623.56;4950200;29;20048;-86
2021/09/06 05:34:46;;;;;;;9.38;4.63;;;;;;;18.14;57.93;100612.91;4915594;29;20079;-82
2021/09/06 05:37:13;;;;;;;6.38;5.38;;;;;;;18.22;57.70;100620.25;4914074;29;20095;-82
2021/09/06 05:39:41;;;;;;;10.20;5.10;;;;;;;18.44;57.27;100612.38;4946769;29;20036;-81
2021/09/06 05:42:09;;;;;;;14.15;5.10;;;;;;;18.62;56.98;100617.19;4907643;29;20460;-81
2021/09/06 05:44:38;;;;;;;6.95;5.22;;;;;;;18.92;55.96;100614.81;4946348;29;20104;-80
2021/09/06 05:47:05;;;;;;;8.60;5.95;;;;;;;19.20;55.11;100618.75;4913558;29;20055;-78
2021/09/06 05:49:36;;;;;;;12.32;6.30;;;;;;;19.25;54.80;100621.84;4946245;29;20518;-81
2021/09/06 05:52:03;;;;;;;5.68;4.85;;;;;;;19.36;54.60;100619.19;4906718;29;20441;-82
2021/09/06 05:54:36;;;;;;;10.27;5.43;;;;;;;19.25;54.84;100618.38;4938939;29;20087;-88
2021/09/06 05:57:06;;;;;;;12.18;5.32;;;;;;;19.25;55.74;100621.03;4912550;29;20040;-93
2021/09/06 05:59:33;;;;;;;11.18;6.18;;;;;;;19.50;55.28;100625.19;4920213;29;20052;-91
2021/09/06 06:02:01;;;;;;;10.43;5.22;;;;;;;19.76;54.32;100628.34;4940870;29;20484;-92
2021/09/06 06:04:28;;;;;;;10.45;4.95;;;;;;;20.00;52.97;100625.47;4930015;29;20087;-92
2021/09/06 06:06:59;;;;;;;12.82;6.50;;;;;;;20.25;52.05;100622.47;4920657;29;20040;-93
2021/09/06 06:09:26;;;;;;;11.25;5.65;;;;;;;20.40;51.60;100630.91;4927341;29;20080;-80
2021/09/06 06:11:54;;;;;;;12.60;5.35;;;;;;;20.20;51.42;100629.13;4930908;29;20460;-80
2021/09/06 06:14:24;;;;;;;16.30;6.93;;;;;;;20.11;53.34;100631.53;4916653;29;20044;-83
2021/09/06 06:16:53;;;;;;;13.15;5.47;;;;;;;20.01;54.24;100628.00;4941065;29;20080;-84
2021/09/06 06:19:22;;;;;;;16.80;5.90;;;;;;;20.24;53.76;100620.78;4919098;29;20488;-86
2021/09/06 06:22:07;;;;;;;9.45;5.55;;;;;;;20.33;52.82;100635.88;4912712;29;20051;-86
2021/09/06 06:24:56;;;;;;;6.35;5.72;;;;;;;20.11;51.79;100633.34;4909729;29;20172;-87
2021/09/06 06:27:32;;;;;;;7.05;5.65;;;;;;;20.13;51.38;100631.41;4912472;29;20546;-81
2021/09/06 06:30:00;;;;;;;7.60;5.45;;;;;;;20.15;51.38;100629.50;4915636;29;20055;-78
2021/09/06 06:32:28;;;;;;;6.60;5.30;;;;;;;20.47;50.60;100629.44;4915103;29;20095;-79
2021/09/06 06:35:05;;;;;;;7.35;5.78;;;;;;;20.50;50.22;100636.28;4942972;29;20499;-80
2021/09/06 06:37:35;;;;;;;8.93;6.18;;;;;;;20.62;50.10;100641.38;4913366;29;20044;-79
2021/09/06 06:40:02;;;;;;;8.25;6.05;;;;;;;20.90;49.62;100637.19;4906233;29;20048;-77
2021/09/06 06:42:33;;;;;;;9.15;6.28;;;;;;;20.92;48.71;100635.22;4908851;29;20044;-78
2021/09/06 06:45:00;;;;;;;7.93;6.85;;;;;;;21.02;48.39;100629.97;4933796;29;20530;-85
2021/09/06 06:47:27;;;;;;;8.52;5.78;;;;;;;20.89;48.57;100635.50;4922822;29;20090;-80
2021/09/06 06:49:54;;;;;;;7.45;6.60;;;;;;;21.15;48.25;100632.38;4923165;29;20051;-79
2021/09/06 06:52:23;;;;;;;9.98;7.45;;;;;;;21.33;47.70;100643.19;4928924;29;20492;-78
2021/09/06 06:54:49;;;;;;;8.73;5.68;;;;;;;21.27;47.66;100644.56;4914148;29;20050;-92
2021/09/06 06:57:18;;;;;;;9.23;5.80;;;;;;;21.12;48.54;100640.59;4920794;29;20048;-81
2021/09/06 06:59:46;;;;;;;8.57;4.97;;;;;;;21.43;48.37;100649.38;4915841;29;20123;-80
2021/09/06 07:02:14;;;;;;;6.78;5.38;;;;;;;21.15;49.09;100656.25;4911703;29;20059;-79
2021/09/06 07:04:42;;;;;;;7.40;5.95;;;;;;;21.33;48.98;100652.00;4905552;29;20044;-80
2021/09/06 07:07:10;;;;;;;6.32;5.72;;;;;;;21.18;49.23;100653.31;4921374;29;20044;-79
2021/09/06 07:09:38;;;;;;;9.40;6.20;;;;;;;21.09;49.19;100643.50;4928886;29;20407;-82
2021/09/06 07:12:05;;;;;;;10.80;6.15;;;;;;;21.23;48.96;100648.44;4914646;29;20126;-79
2021/09/06 07:14:35;;;;;;;9.38;6.32;;;;;;;21.24;48.12;100652.75;4910288;29;20043;-78
2021/09/06 07:17:05;;;;;;;8.20;5.97;;;;;;;21.12;47.91;100649.38;4947990;29;20546;-80
2021/09/06 07:19:32;;;;;;;10.57;6.28;;;;;;;21.07;48.82;100653.41;4928243;29;20055;-79
2021/09/06 07:22:01;;;;;;;10.43;6.40;;;;;;;21.20;48.30;100664.63;4933415;29;20119;-78
2021/09/06 07:24:30;;;;;;;7.22;6.55;;;;;;;21.04;48.85;100661.63;4932052;29;20132;-81
2021/09/06 07:26:58;;;;;;;9.77;7.03;;;;;;;21.51;48.35;100664.56;4947335;29;20131;-85
2021/09/06 07:29:25;;;;;;;11.35;7.10;;;;;;;21.51;48.49;100665.41;4945670;29;20075;-86
2021/09/06 07:31:53;;;;;;;15.93;6.38;;;;;;;21.66;48.96;100669.34;4949106;29;20056;-84
2021/09/06 07:34:20;;;;;;;9.95;6.18;;;;;;;21.59;48.95;100670.06;4917679;29;20107;-83
2021/09/06 07:36:47;;;;;;;12.98;7.75;;;;;;;21.43;50.22;100667.94;4918462;29;20055;-82
2021/09/06 07:39:16;;;;;;;9.50;6.82;;;;;;;21.76;50.15;100673.84;4921657;29;20091;-81
2021/09/06 07:41:45;;;;;;;8.55;6.60;;;;;;;21.57;51.71;100672.84;4939564;29;20501;-80
2021/09/06 07:44:12;;;;;;;10.80;6.80;;;;;;;22.09;50.48;100672.56;4910232;29;20039;-79
2021/09/06 07:46:39;;;;;;;7.93;6.70;;;;;;;22.18;49.96;100680.56;4911277;29;20128;-79
2021/09/06 07:49:06;;;;;;;8.90;7.03;;;;;;;21.69;52.12;100684.16;4937261;29;20051;-79
2021/09/06 07:51:34;;;;;;;13.20;6.50;;;;;;;21.81;52.09;100680.41;4913829;29;20048;-80
2021/09/06 07:54:02;;;;;;;6.65;5.95;;;;;;;21.98;51.90;100681.53;4942065;29;20058;-81
2021/09/06 07:56:29;;;;;;;8.88;6.95;;;;;;;22.33;52.17;100685.47;4929538;29;20050;-79
2021/09/06 07:58:56;;;;;;;8.98;7.57;;;;;;;22.23;52.87;100691.63;4918188;29;20122;-81
2021/09/06 08:01:23;;;;;;;10.07;7.15;;;;;;;22.72;51.33;100688.88;4931122;29;20126;-79
2021/09/06 08:03:51;;;;;;;11.63;7.82;;;;;;;22.20;52.42;100696.34;4914046;29;20036;-79
2021/09/06 08:06:18;;;;;;;14.45;7.55;;;;;;;22.62;51.62;100699.50;4910373;29;20040;-82
2021/09/06 08:08:45;;;;;;;8.57;6.03;;;;;;;22.84;51.84;100687.69;4916728;29;20054;-83
2021/09/06 08:11:12;;;;;;;11.15;5.70;;;;;;;22.93;51.92;100692.19;4916451;29;20502;-81
2021/09/06 08:13:42;;;;;;;9.55;5.78;;;;;;;23.14;51.10;100689.31;4915900;29;20052;-84
2021/09/06 08:16:10;;;;;;;13.27;5.07;;;;;;;23.35;50.36;100696.22;4918915;29;20064;-83
2021/09/06 08:18:38;;;;;;;9.32;5.53;;;;;;;23.13;50.46;100694.78;4918087;29;20055;-83
2021/09/06 08:21:33;;;;;;;9.57;5.68;;;;;;;22.56;52.27;100707.22;4936178;29;20043;-80
2021/09/06 08:24:01;;;;;;;10.73;6.30;;;;;;;23.00;51.91;100698.59;4930715;29;20361;-84
2021/09/06 08:26:28;;;;;;;7.20;5.05;;;;;;;22.18;54.34;100712.44;4917235;29;20167;-85
2021/09/06 08:28:56;;;;;;;12.30;5.72;;;;;;;22.94;52.13;100712.47;4918021;29;20091;-82
2021/09/06 08:31:24;;;;;;;28.15;8.25;;;;;;;23.10;51.30;100700.38;4915189;29;20071;-84
2021/09/06 08:33:52;;;;;;;9.95;6.30;;;;;;;23.49;50.14;100706.34;4917881;29;20040;-87
2021/09/06 08:36:19;;;;;;;6.40;5.80;;;;;;;22.45;52.45;100718.84;4918862;29;20034;-87
2021/09/06 08:38:48;;;;;;;7.82;5.50;;;;;;;22.78;52.98;100722.00;4931870;29;20043;-85
2021/09/06 08:41:15;;;;;;;12.23;6.75;;;;;;;22.51;52.63;100723.59;4925524;29;20470;-86
2021/09/06 08:43:43;;;;;;;8.88;6.30;;;;;;;22.58;53.49;100718.53;4924488;29;20076;-87
2021/09/06 08:46:21;;;;;;;9.43;6.18;;;;;;;22.79;51.76;100716.53;4905220;29;20127;-85
2021/09/06 08:48:48;;;;;;;12.85;7.00;;;;;;;23.43;49.79;100710.41;4931932;29;20044;-87
2021/09/06 08:51:17;;;;;;;9.52;6.03;;;;;;;23.83;48.90;100719.88;4938136;29;20039;-86
2021/09/06 08:53:44;;;;;;;14.45;6.50;;;;;;;23.00;49.35;100719.84;4936383;29;20076;-86
2021/09/06 08:56:11;;;;;;;10.75;6.72;;;;;;;22.69;50.40;100729.00;4939195;29;20044;-86
2021/09/06 08:58:58;;;;;;;13.23;6.43;;;;;;;23.05;49.16;100722.09;4950154;29;20055;-87
2021/09/06 09:01:38;;;;;;;6.45;5.75;;;;;;;23.21;48.57;100716.97;4946045;29;20024;-85
2021/09/06 09:04:29;;;;;;;13.20;6.57;;;;;;;23.55;47.47;100715.56;4955110;29;20104;-88
2021/09/06 09:07:15;;;;;;;13.23;6.28;;;;;;;23.48;47.97;100721.47;4958597;29;20083;-89
2021/09/06 09:10:00;;;;;;;15.05;6.20;;;;;;;24.00;45.94;100708.41;4942216;29;20054;-90
2021/09/06 09:12:40;;;;;;;8.52;5.78;;;;;;;24.13;45.65;100721.34;4956152;29;20483;-86
2021/09/06 09:15:54;;;;;;;10.23;6.00;;;;;;;24.11;45.80;100717.16;4917553;29;20044;-84
2021/09/06 09:18:33;;;;;;;15.85;6.13;;;;;;;23.65;47.01;100719.88;4921941;29;20503;-86
2021/09/06 09:21:24;;;;;;;11.65;5.95;;;;;;;24.30;45.56;100725.81;4918650;29;20111;-90
2021/09/06 09:24:03;;;;;;;11.40;6.07;;;;;;;23.89;45.21;100721.94;4930985;29;20055;-85
2021/09/06 09:26:52;;;;;;;8.27;5.85;;;;;;;24.33;44.33;100721.16;4921976;29;20110;-87
2021/09/06 09:29:29;;;;;;;7.60;6.00;;;;;;;23.60;46.40;100715.97;4945889;29;20054;-85
2021/09/06 09:32:17;;;;;;;9.93;6.90;;;;;;;23.46;47.41;100719.94;4921244;29;20071;-83
2021/09/06 09:34:55;;;;;;;8.77;6.13;;;;;;;23.85;46.35;100711.75;4929662;29;20457;-86
2021/09/06 09:37:34;;;;;;;8.75;5.38;;;;;;;24.16;45.57;100712.19;4942326;29;20142;-89
2021/09/06 09:40:10;;;;;;;7.93;5.25;;;;;;;24.01;45.51;100710.06;4929727;29;20695;-87
2021/09/06 09:42:50;;;;;;;6.07;4.77;;;;;;;23.67;45.06;100709.06;4950222;29;20050;-87
2021/09/06 09:45:23;;;;;;;7.82;5.50;;;;;;;24.04;44.11;100703.63;4927727;29;20326;-84
2021/09/06 09:48:13;;;;;;;6.93;5.13;;;;;;;23.97;41.33;100706.06;4932194;29;20062;-88
2021/09/06 09:50:40;;;;;;;10.13;4.78;;;;;;;24.43;39.10;100701.47;4938637;29;20047;-88
2021/09/06 09:53:07;;;;;;;5.63;5.03;;;;;;;24.78;39.12;100697.03;4935476;29;20087;-86
2021/09/06 09:55:35;;;;;;;8.13;5.25;;;;;;;23.93;42.76;100702.00;4953817;29;20131;-82
2021/09/06 09:58:03;;;;;;;10.60;5.57;;;;;;;24.36;41.39;100696.91;4937183;29;20040;-86
2021/09/06 10:00:30;;;;;;;6.70;5.30;;;;;;;24.13;42.36;100693.84;4938100;29;20095;-83
2021/09/06 10:03:02;;;;;;;11.00;6.18;;;;;;;24.43;41.60;100697.97;4937893;29;20043;-83
2021/09/06 10:05:32;;;;;;;7.07;5.15;;;;;;;24.67;40.70;100700.81;4938811;29;20048;-83
2021/09/06 10:08:05;;;;;;;8.55;5.80;;;;;;;24.38;41.94;100706.41;4938495;29;20398;-84
2021/09/06 10:10:38;;;;;;;13.32;5.10;;;;;;;24.49;41.74;100692.84;4938185;29;20050;-83
2021/09/06 10:13:09;;;;;;;4.95;4.45;;;;;;;24.24;40.45;100702.47;4937941;29;20042;-83
2021/09/06 10:15:37;;;;;;;8.15;5.03;;;;;;;24.54;39.91;100693.22;4936057;29;20095;-84
2021/09/06 10:18:20;;;;;;;7.40;5.20;;;;;;;24.71;40.11;100687.97;4936300;29;20431;-84
2021/09/06 10:20:50;;;;;;;7.53;4.90;;;;;;;24.64;40.73;100678.94;4937401;29;20043;-89
2021/09/06 10:23:19;;;;;;;5.40;4.90;;;;;;;25.12;40.70;100682.91;4936786;29;20060;-86
2021/09/06 10:25:49;;;;;;;7.20;5.35;;;;;;;24.85;41.24;100682.06;4938575;29;20130;-94
2021/09/06 10:28:18;;;;;;;10.23;5.55;;;;;;;24.83;41.21;100684.06;4918780;29;20522;-86
2021/09/06 10:30:53;;;;;;;6.22;5.63;;;;;;;24.92;39.86;100674.25;4938746;29;20079;-86
2021/09/06 10:33:38;;;;;;;9.88;6.00;;;;;;;25.14;39.27;100675.56;4937559;29;20058;-86
2021/09/06 10:36:11;;;;;;;11.02;6.05;;;;;;;25.27;39.57;100670.63;4934353;29;20086;-85
2021/09/06 10:38:39;;;;;;;7.72;5.80;;;;;;;25.05;39.65;100680.00;4935263;29;20514;-86
2021/09/06 10:41:13;;;;;;;8.82;5.40;;;;;;;25.16;38.94;100670.91;4935665;29;20043;-86
2021/09/06 10:43:59;;;;;;;8.95;5.15;;;;;;;25.34;39.15;100674.31;4935708;29;20055;-86
2021/09/06 10:46:28;;;;;;;9.02;6.25;;;;;;;24.98;39.09;100682.50;4935650;29;20086;-85
2021/09/06 10:49:01;;;;;;;6.43;5.13;;;;;;;25.36;38.24;100675.00;4935992;29;20408;-85
2021/09/06 10:52:17;;;;;;;9.30;5.93;;;;;;;25.09;38.30;100668.06;4937299;29;20122;-85
2021/09/06 10:54:46;;;;;;;13.10;5.40;;;;;;;24.83;39.37;100678.75;4911803;29;20053;-85
2021/09/06 10:57:13;;;;;;;7.20;5.43;;;;;;;25.33;38.54;100659.28;4922527;29;20046;-85
2021/09/06 10:59:45;;;;;;;7.70;5.75;;;;;;;25.48;38.32;100668.34;4937172;29;20045;-85
2021/09/06 11:02:14;;;;;;;17.25;6.82;;;;;;;25.55;38.45;100663.19;4936652;29;20410;-84
2021/09/06 11:04:43;;;;;;;7.00;5.68;;;;;;;25.79;36.81;100665.09;4936111;29;20038;-84
2021/09/06 11:07:11;;;;;;;6.60;5.90;;;;;;;25.67;37.81;100661.88;4935531;29;20050;-82
2021/09/06 11:09:39;;;;;;;7.20;4.72;;;;;;;25.70;35.17;100661.56;4935655;29;20071;-82
2021/09/06 11:12:12;;;;;;;6.18;4.93;;;;;;;25.66;34.96;100662.88;4918223;29;20058;-82
2021/09/06 11:14:44;;;;;;;8.75;5.65;;;;;;;25.73;35.15;100660.41;4935110;29;20122;-82
2021/09/06 11:17:25;;;;;;;10.70;6.47;;;;;;;25.80;36.17;100666.78;4935502;29;20502;-81
2021/09/06 11:19:57;;;;;;;6.60;5.20;;;;;;;25.65;35.85;100663.88;4935564;29;20043;-83
2021/09/06 11:22:27;;;;;;;7.10;5.60;;;;;;;26.07;35.69;100657.59;4935352;29;20154;-86
2021/09/06 11:25:35;;;;;;;;;;;;;;;;;;;;;
2021/09/06 11:28:15;;;;;;;10.60;5.45;;;;;;;26.03;36.01;100657.09;4930173;29;20499;-86
2021/09/06 11:30:44;;;;;;;9.50;5.32;;;;;;;26.39;35.02;100654.06;4926043;29;20055;-90
2021/09/06 11:33:13;;;;;;;6.20;5.22;;;;;;;26.07;34.57;100650.41;4943956;29;20040;-92
2021/09/06 11:35:48;;;;;;;10.70;5.28;;;;;;;26.32;33.99;100651.25;4913110;29;20046;-89
2021/09/06 11:38:16;;;;;;;12.50;4.55;;;;;;;26.17;33.80;100652.94;4932997;29;20051;-85
2021/09/06 11:40:54;;;;;;;6.00;4.65;;;;;;;26.69;33.99;100654.38;4933062;29;20042;-88